createdAt,value
2023-04-10T00:00:39.312Z,11.30
2023-04-10T00:06:01.046Z,11.25
2023-04-10T00:11:22.870Z,10.60
2023-04-10T00:16:44.690Z,10.40
2023-04-10T00:22:06.390Z,10.73
2023-04-10T00:27:28.117Z,10.55
2023-04-10T00:32:49.893Z,9.75
2023-04-10T00:38:11.968Z,9.90
2023-04-10T00:43:33.998Z,10.25
2023-04-10T00:48:56.295Z,10.63
2023-04-10T00:54:18.106Z,10.38
2023-04-10T00:59:39.851Z,10.87
2023-04-10T01:05:02.240Z,10.18
2023-04-10T01:10:36.359Z,10.55
2023-04-10T01:16:11.532Z,10.63
2023-04-10T01:21:36.573Z,10.77
2023-04-10T01:27:11.206Z,9.75
2023-04-10T01:32:35.504Z,10.98
2023-04-10T01:38:00.475Z,10.32
2023-04-10T01:43:24.584Z,11.15
2023-04-10T01:48:47.181Z,11.73
2023-04-10T01:54:09.103Z,11.38
2023-04-10T01:59:31.283Z,12.40
2023-04-10T02:04:52.990Z,11.77
2023-04-10T02:10:24.658Z,11.95
2023-04-10T02:15:48.303Z,11.18
2023-04-10T02:21:10.111Z,11.90
2023-04-10T02:26:49.831Z,11.45
2023-04-10T02:32:11.569Z,10.95
2023-04-10T02:37:33.312Z,10.82
2023-04-10T02:42:55.033Z,10.73
2023-04-10T02:48:16.907Z,11.33
2023-04-10T02:53:38.635Z,11.25
2023-04-10T02:59:00.581Z,10.85
2023-04-10T03:04:22.386Z,11.73
2023-04-10T03:09:44.151Z,12.07
2023-04-10T03:15:06.348Z,11.47
2023-04-10T03:20:28.099Z,11.03
2023-04-10T03:25:53.668Z,10.67
2023-04-10T03:31:15.463Z,13.70
2023-04-10T03:36:37.133Z,11.07
2023-04-10T03:41:58.854Z,11.27
2023-04-10T03:47:20.596Z,11.07
2023-04-10T03:52:42.321Z,12.43
2023-04-10T03:58:04.797Z,11.33
2023-04-10T04:03:26.724Z,12.20
2023-04-10T04:08:48.553Z,11.60
2023-04-10T04:14:10.254Z,10.83
2023-04-10T04:19:31.967Z,9.97
2023-04-10T04:24:53.653Z,11.10
2023-04-10T04:30:15.380Z,11.37
2023-04-10T04:35:37.096Z,10.83
2023-04-10T04:40:58.812Z,11.23
2023-04-10T04:46:20.569Z,12.50
2023-04-10T04:51:42.262Z,12.70
2023-04-10T04:57:04.128Z,12.60
2023-04-10T05:02:26.023Z,12.68
2023-04-10T05:07:47.808Z,13.15
2023-04-10T05:13:09.477Z,13.73
2023-04-10T05:18:31.288Z,13.90
2023-04-10T05:23:52.992Z,14.10
2023-04-10T05:29:14.694Z,12.95
2023-04-10T05:34:36.627Z,13.37
2023-04-10T05:39:59.391Z,13.30
2023-04-10T05:45:21.089Z,13.33
2023-04-10T05:50:42.793Z,12.10
2023-04-10T05:56:04.766Z,11.98
2023-04-10T06:01:26.673Z,12.13
2023-04-10T06:06:48.360Z,12.35
2023-04-10T06:12:10.042Z,12.67
2023-04-10T06:17:31.882Z,11.67
2023-04-10T06:22:53.879Z,12.33
2023-04-10T06:28:15.605Z,12.57
2023-04-10T06:33:37.311Z,13.27
2023-04-10T06:38:59.008Z,12.30
2023-04-10T06:44:20.789Z,13.23
2023-04-10T06:49:42.475Z,12.52
2023-04-10T06:55:04.807Z,12.63
2023-04-10T07:00:26.811Z,12.07
2023-04-10T07:05:48.606Z,14.07
2023-04-10T07:11:10.401Z,13.35
2023-04-10T07:16:32.756Z,13.30
2023-04-10T07:21:54.554Z,13.52
2023-04-10T07:27:16.968Z,12.70
2023-04-10T07:32:39.886Z,13.48
2023-04-10T07:38:02.064Z,12.70
2023-04-10T07:43:24.024Z,12.82
2023-04-10T07:48:47.496Z,11.85
2023-04-10T07:54:09.250Z,11.73
2023-04-10T07:59:30.945Z,11.05
2023-04-10T08:04:52.749Z,10.48
2023-04-10T08:10:14.662Z,9.52
2023-04-10T08:15:36.371Z,7.65
2023-04-10T08:20:58.042Z,6.57
2023-04-10T08:26:19.710Z,5.88
2023-04-10T08:31:41.450Z,5.85
2023-04-10T08:37:09.096Z,5.20
2023-04-10T08:42:33.876Z,4.68
2023-04-10T08:48:01.906Z,4.90
2023-04-10T08:53:25.370Z,4.72
2023-04-10T08:58:47.845Z,4.55
2023-04-10T09:04:11.845Z,5.68
2023-04-10T09:09:34.175Z,7.85
2023-04-10T09:14:56.599Z,9.25
2023-04-10T09:20:23.338Z,4.53
2023-04-10T09:25:45.156Z,4.20
2023-04-10T09:31:28.345Z,3.58
2023-04-10T09:36:58.517Z,3.28
2023-04-10T09:42:33.979Z,3.40
2023-04-10T09:48:08.557Z,2.72
2023-04-10T09:53:31.232Z,2.70
2023-04-10T09:58:56.658Z,3.35
2023-04-10T10:04:18.644Z,3.00
2023-04-10T10:09:41.822Z,2.90
2023-04-10T10:15:12.301Z,2.78
2023-04-10T10:20:36.605Z,2.30
2023-04-10T10:26:02.379Z,2.55
2023-04-10T10:31:26.144Z,2.33
2023-04-10T10:36:47.886Z,2.67
2023-04-10T10:42:30.053Z,2.15
2023-04-10T10:47:54.033Z,1.50
2023-04-10T10:53:34.183Z,1.98
2023-04-10T10:58:59.425Z,1.75
2023-04-10T11:04:44.778Z,1.40
2023-04-10T11:10:06.922Z,1.58
2023-04-10T11:15:28.788Z,1.35
2023-04-10T11:21:10.318Z,1.27
2023-04-10T11:26:35.345Z,1.50
2023-04-10T11:31:59.677Z,1.52
2023-04-10T11:37:24.413Z,1.40
2023-04-10T11:42:47.825Z,1.40
2023-04-10T11:48:09.566Z,1.10
2023-04-10T11:53:31.265Z,1.52
2023-04-10T11:58:54.445Z,0.93
2023-04-10T12:04:22.281Z,0.93
2023-04-10T12:09:44.181Z,1.30
2023-04-10T12:15:26.398Z,1.10
2023-04-10T12:20:48.502Z,0.80
2023-04-10T12:26:18.580Z,0.73
2023-04-10T12:31:40.818Z,0.63
2023-04-10T12:37:02.932Z,0.80
2023-04-10T12:42:26.281Z,0.70
2023-04-10T12:47:51.794Z,0.90
2023-04-10T12:53:14.164Z,0.80
2023-04-10T12:58:37.009Z,0.70
2023-04-10T13:03:58.848Z,0.82
2023-04-10T13:09:21.689Z,0.80
2023-04-10T13:14:43.391Z,0.90
2023-04-10T13:20:06.325Z,1.00
2023-04-10T13:25:28.273Z,0.80
2023-04-10T13:30:50.159Z,1.33
2023-04-10T13:36:11.970Z,1.00
2023-04-10T13:41:34.192Z,1.08
2023-04-10T13:46:57.951Z,1.10
2023-04-10T13:52:19.787Z,1.05
2023-04-10T13:57:42.794Z,1.00
2023-04-10T14:03:05.638Z,1.40
2023-04-10T14:08:27.520Z,1.33
2023-04-10T14:13:49.367Z,1.50
2023-04-10T14:19:11.075Z,1.20
2023-04-10T14:24:33.089Z,1.10
2023-04-10T14:29:55.755Z,1.40
2023-04-10T14:35:17.657Z,1.30
2023-04-10T14:40:42.008Z,1.38
2023-04-10T14:46:03.961Z,1.40
2023-04-10T14:51:26.230Z,1.40
2023-04-10T14:56:49.205Z,1.27
2023-04-10T15:02:10.975Z,1.30
2023-04-10T15:07:32.768Z,1.50
2023-04-10T15:12:54.491Z,1.40
2023-04-10T15:18:16.312Z,1.20
2023-04-10T15:23:38.008Z,1.13
2023-04-10T15:28:59.829Z,1.30
2023-04-10T15:34:21.510Z,1.33
2023-04-10T15:39:43.222Z,1.20
2023-04-10T15:45:05.387Z,1.30
2023-04-10T15:50:27.327Z,1.40
2023-04-10T15:55:49.071Z,1.17
2023-04-10T16:01:10.936Z,1.33
2023-04-10T16:06:33.213Z,1.27
2023-04-10T16:11:56.042Z,1.30
2023-04-10T16:17:17.942Z,2.33
2023-04-10T16:22:39.655Z,1.40
2023-04-10T16:28:01.693Z,1.58
2023-04-10T16:33:23.925Z,1.27
2023-04-10T16:38:49.445Z,1.25
2023-04-10T16:44:11.318Z,1.40
2023-04-10T16:49:33.020Z,1.27
2023-04-10T16:54:54.865Z,1.50
2023-04-10T17:00:16.870Z,1.27
2023-04-10T17:05:38.572Z,1.48
2023-04-10T17:11:00.695Z,1.42
2023-04-10T17:16:22.524Z,1.80
2023-04-10T17:21:44.233Z,1.60
2023-04-10T17:27:06.006Z,1.73
2023-04-10T17:32:27.782Z,1.65
2023-04-10T17:37:49.500Z,2.40
2023-04-10T17:43:11.197Z,1.30
2023-04-10T17:48:34.388Z,1.60
2023-04-10T17:53:56.552Z,1.20
2023-04-10T17:59:18.259Z,1.58
2023-04-10T18:04:40.094Z,1.60
2023-04-10T18:10:01.996Z,1.20
2023-04-10T18:15:24.522Z,1.90
2023-04-10T18:20:46.303Z,1.50
2023-04-10T18:26:07.993Z,1.40
2023-04-10T18:31:29.953Z,1.27
2023-04-10T18:36:51.965Z,1.45
2023-04-10T18:42:13.645Z,3.45
2023-04-10T18:47:35.362Z,2.60
2023-04-10T18:52:57.061Z,2.05
2023-04-10T18:58:22.208Z,1.90
2023-04-10T19:03:43.991Z,3.30
2023-04-10T19:09:05.934Z,2.45
2023-04-10T19:14:27.755Z,2.40
2023-04-10T19:19:49.729Z,2.45
2023-04-10T19:25:11.582Z,2.05
2023-04-10T19:30:33.368Z,2.10
2023-04-10T19:35:55.179Z,3.85
2023-04-10T19:41:17.865Z,3.50
2023-04-10T19:46:39.913Z,3.63
2023-04-10T19:52:01.658Z,3.08
2023-04-10T19:57:23.490Z,3.42
2023-04-10T20:02:45.424Z,4.35
2023-04-10T20:08:07.390Z,2.67
2023-04-10T20:13:29.093Z,2.40
2023-04-10T20:18:53.031Z,1.88
2023-04-10T20:24:15.180Z,2.10
2023-04-10T20:29:36.904Z,2.10
2023-04-10T20:34:58.712Z,2.75
2023-04-10T20:40:20.591Z,2.40
2023-04-10T20:45:42.327Z,5.18
2023-04-10T20:51:05.044Z,6.35
2023-04-10T20:56:33.100Z,4.50
2023-04-10T21:01:59.030Z,2.25
2023-04-10T21:07:20.912Z,2.28
2023-04-10T21:12:42.951Z,2.65
2023-04-10T21:18:05.163Z,2.40
2023-04-10T21:23:26.946Z,2.50
2023-04-10T21:28:48.637Z,2.35
2023-04-10T21:34:10.496Z,4.15
2023-04-10T21:39:32.321Z,8.05
2023-04-10T21:44:54.638Z,4.63
2023-04-10T21:50:16.368Z,2.30
2023-04-10T21:55:38.260Z,2.10
2023-04-10T22:01:00.685Z,1.80
2023-04-10T22:06:22.423Z,1.92
2023-04-10T22:11:44.141Z,2.20
2023-04-10T22:17:05.886Z,1.90
2023-04-10T22:22:27.775Z,1.80
2023-04-10T22:27:49.538Z,1.42
2023-04-10T22:33:12.002Z,1.45
2023-04-10T22:38:33.726Z,1.55
2023-04-10T22:43:55.475Z,1.50
2023-04-10T22:49:17.145Z,1.70
2023-04-10T22:54:38.841Z,1.60
2023-04-10T23:00:00.815Z,1.40
2023-04-10T23:05:22.718Z,1.50
2023-04-10T23:10:44.404Z,1.40
2023-04-10T23:16:06.661Z,1.40
2023-04-10T23:21:28.418Z,1.60
2023-04-10T23:26:50.155Z,1.50
2023-04-10T23:32:11.815Z,1.70
2023-04-10T23:37:36.465Z,1.52
2023-04-10T23:42:58.165Z,1.50
2023-04-10T23:48:19.851Z,1.30
2023-04-10T23:53:41.533Z,1.88
2023-04-10T23:59:03.505Z,1.65
